Time;durP1;ratioP1;P1;durP2;ratioP2;P2;SDS_P1;SDS_P2;PMS_P1;PMS_P2;Temp;Humidity;BMP_temperature;BMP_pressure;BME280_temperature;BME280_humidity;BME280_pressure;Samples;Min_cycle;Max_cycle;Signal;HPM_P1;HPM_P2
2023/07/21 00:01:04;;;;;;;7.63;2.72;;;18.60;59.30;;;17.79;66.68;95521.31;4977146;28;20199;-65
2023/07/21 00:03:30;;;;;;;6.28;2.42;;;18.60;59.60;;;17.75;66.46;95521.81;4990958;28;20200;-65
2023/07/21 00:05:56;;;;;;;5.40;2.50;;;18.60;60.00;;;17.69;67.55;95517.50;4999645;28;20079;-65
2023/07/21 00:08:26;;;;;;;6.35;2.50;;;18.60;60.60;;;17.63;68.04;95517.63;4992900;28;20099;-65
2023/07/21 00:10:51;;;;;;;8.13;2.63;;;18.50;61.30;;;17.61;68.76;95519.72;4973051;28;20120;-65
2023/07/21 00:13:17;;;;;;;7.82;2.70;;;18.40;61.50;;;17.59;69.04;95517.31;4983254;28;20037;-65
2023/07/21 00:15:45;;;;;;;6.82;2.63;;;18.40;61.70;;;17.57;69.50;95518.63;4996699;28;20124;-65
2023/07/21 00:18:12;;;;;;;7.82;2.70;;;18.30;61.90;;;17.52;69.02;95510.59;4977461;28;20453;-66
2023/07/21 00:20:38;;;;;;;11.75;2.90;;;18.30;62.00;;;17.48;69.49;95510.28;5016384;28;20033;-65
2023/07/21 00:23:04;;;;;;;7.50;2.50;;;18.30;61.80;;;17.46;69.53;95507.06;4972101;28;20036;-65
2023/07/21 00:25:30;;;;;;;9.73;2.92;;;18.30;61.70;;;17.42;69.95;95505.91;5015537;28;20032;-65
2023/07/21 00:27:55;;;;;;;5.95;2.53;;;18.20;61.80;;;17.38;70.19;95504.81;4971164;28;20139;-65
2023/07/21 00:30:22;;;;;;;6.07;2.70;;;18.20;61.60;;;17.35;69.38;95505.28;4986319;28;20059;-65
2023/07/21 00:32:47;;;;;;;8.32;3.00;;;18.20;61.50;;;17.32;69.37;95501.28;4987775;28;20122;-65
2023/07/21 00:35:13;;;;;;;10.30;2.90;;;18.10;61.60;;;17.28;70.37;95510.00;4999670;28;20119;-65
2023/07/21 00:37:39;;;;;;;7.47;2.30;;;18.10;61.70;;;17.27;70.01;95513.72;4994580;28;20033;-65
2023/07/21 00:40:09;;;;;;;6.55;2.88;;;18.10;61.70;;;17.26;70.32;95518.22;4975737;28;20025;-65
2023/07/21 00:42:36;;;;;;;6.82;2.67;;;18.10;61.90;;;17.24;70.27;95515.00;5000818;28;20496;-65
2023/07/21 00:45:03;;;;;;;7.95;2.83;;;18.10;62.20;;;17.20;70.65;95519.19;4972888;28;20474;-65
2023/07/21 00:47:29;;;;;;;8.02;2.90;;;18.10;62.40;;;17.15;71.41;95517.25;4992345;28;20086;-65
2023/07/21 00:49:58;;;;;;;7.25;2.85;;;18.00;62.70;;;17.14;71.50;95512.19;4970133;28;20039;-65
2023/07/21 00:52:24;;;;;;;7.95;2.70;;;18.00;63.10;;;17.11;71.95;95518.78;5006445;28;20647;-65
2023/07/21 00:54:49;;;;;;;6.18;2.90;;;18.00;63.10;;;17.07;72.07;95509.72;4967408;28;20056;-65
2023/07/21 00:57:16;;;;;;;5.85;2.30;;;17.90;63.40;;;17.07;72.34;95509.72;4979642;28;20037;-65
2023/07/21 00:59:41;;;;;;;9.30;2.80;;;17.90;63.50;;;17.03;72.48;95497.97;4971781;28;20067;-65
2023/07/21 01:02:07;;;;;;;5.45;2.70;;;17.90;62.90;;;17.00;71.86;95493.13;4980889;28;20037;-65
2023/07/21 01:04:36;;;;;;;7.78;3.00;;;17.90;62.60;;;16.94;72.09;95494.09;4992586;28;20544;-65
2023/07/21 01:07:05;;;;;;;8.48;2.53;;;17.80;62.80;;;16.92;72.03;95487.41;4992811;28;20033;-66
2023/07/21 01:09:32;;;;;;;7.18;3.35;;;17.80;62.40;;;16.94;71.99;95496.75;5001607;28;20124;-65
2023/07/21 01:11:58;;;;;;;6.35;2.60;;;17.90;62.30;;;16.95;71.52;95489.59;4979335;28;20041;-65
2023/07/21 01:14:23;;;;;;;7.57;2.75;;;17.90;62.30;;;16.92;72.12;95490.88;5005259;28;20070;-65
2023/07/21 01:16:49;;;;;;;8.63;3.10;;;17.80;62.80;;;16.90;72.75;95477.03;5013530;28;20066;-65
2023/07/21 01:19:15;;;;;;;6.68;3.30;;;17.80;63.20;;;16.87;72.67;95482.84;5005798;28;20067;-66
2023/07/21 01:21:54;;;;;;;7.82;3.10;;;17.80;63.50;;;16.87;74.33;95490.00;4995590;28;20072;-65
2023/07/21 01:24:51;;;;;;;7.28;3.55;;;17.70;63.70;;;16.82;74.76;95482.78;4991858;28;20167;-65
2023/07/21 01:29:52;;;;;;;5.82;2.72;;;17.70;63.80;;;16.76;73.55;95465.16;5265716;22;20040;-68
2023/07/21 01:32:20;;;;;;;9.18;3.15;;;17.60;64.00;;;16.75;73.62;95467.00;4994601;28;20037;-68
2023/07/21 01:34:46;;;;;;;6.25;2.72;;;17.60;64.10;;;16.73;73.85;95469.06;5025138;28;20078;-68
2023/07/21 01:37:12;;;;;;;5.75;2.95;;;17.60;63.70;;;16.73;73.49;95471.72;5028801;28;20037;-68
2023/07/21 01:39:38;;;;;;;5.90;3.13;;;17.60;63.50;;;16.73;73.36;95477.03;5010898;28;20029;-68
2023/07/21 01:42:07;;;;;;;5.05;2.90;;;17.70;63.50;;;16.73;73.27;95477.03;5008717;28;20548;-69
2023/07/21 01:44:33;;;;;;;9.18;3.05;;;17.60;63.60;;;16.70;73.80;95472.22;5012440;28;20032;-68
2023/07/21 01:46:59;;;;;;;4.53;2.75;;;17.60;63.90;;;16.68;73.69;95473.50;5011651;28;20113;-68
2023/07/21 01:49:24;;;;;;;11.90;3.15;;;17.60;63.90;;;16.67;74.28;95474.56;5010448;28;20036;-68
2023/07/21 01:51:52;;;;;;;7.03;2.97;;;17.60;64.20;;;16.67;74.52;95477.22;4996259;28;20670;-67
2023/07/21 01:54:28;;;;;;;8.35;2.95;;;17.60;64.20;;;16.65;75.34;95477.44;5022214;28;20029;-67
2023/07/21 01:56:59;;;;;;;5.97;2.70;;;17.60;64.10;;;16.66;74.90;95478.22;5012867;28;20029;-68
2023/07/21 01:59:26;;;;;;;4.70;3.20;;;17.60;64.20;;;16.65;74.27;95466.81;5028258;28;20060;-68
2023/07/21 02:01:54;;;;;;;5.10;2.85;;;17.60;64.20;;;16.64;75.05;95467.06;5027904;28;20411;-67
2023/07/21 02:04:21;;;;;;;6.75;2.97;;;17.60;64.40;;;16.63;75.22;95468.09;5009208;28;20033;-68
2023/07/21 02:06:49;;;;;;;6.57;2.70;;;17.50;64.70;;;16.63;75.11;95468.09;5045765;28;20231;-68
2023/07/21 02:09:15;;;;;;;7.93;3.03;;;17.60;64.80;;;16.62;75.88;95469.16;5017652;28;20106;-68
2023/07/21 02:11:43;;;;;;;7.78;2.92;;;17.60;65.20;;;16.59;76.07;95457.16;5026882;28;20547;-68
2023/07/21 02:14:09;;;;;;;5.00;3.15;;;17.50;65.50;;;16.56;77.47;95470.13;5012069;28;20048;-68
2023/07/21 02:16:35;;;;;;;5.55;2.85;;;17.50;66.10;;;16.54;77.55;95468.50;5027541;28;20586;-68
2023/07/21 02:19:01;;;;;;;5.85;3.03;;;17.50;66.30;;;16.56;77.84;95472.78;5045603;28;20117;-68
2023/07/21 02:21:27;;;;;;;6.68;3.05;;;17.50;66.40;;;16.55;78.40;95469.31;5027116;28;20061;-67
2023/07/21 02:23:54;;;;;;;7.50;3.10;;;17.50;66.80;;;16.53;78.78;95460.78;5027792;28;20025;-67
2023/07/21 02:26:19;;;;;;;8.27;3.40;;;17.50;67.20;;;16.52;79.34;95460.00;5044378;28;20121;-68
2023/07/21 02:28:45;;;;;;;8.63;3.22;;;17.50;67.30;;;16.46;80.06;95454.81;5011331;28;20061;-68
2023/07/21 02:31:11;;;;;;;9.07;3.60;;;17.40;67.60;;;16.40;80.52;95451.28;5044581;28;20048;-68
2023/07/21 02:33:37;;;;;;;6.28;3.33;;;17.40;67.50;;;16.38;80.15;95448.06;5033946;28;20084;-67
2023/07/21 02:36:05;;;;;;;5.13;3.05;;;17.30;66.70;;;16.42;79.44;95448.38;5049911;28;20115;-68
2023/07/21 02:38:31;;;;;;;6.38;2.83;;;17.50;65.70;;;16.44;77.61;95444.44;5031473;28;20033;-67
2023/07/21 02:41:04;;;;;;;3.75;2.53;;;17.50;65.00;;;16.45;78.41;95451.34;5031406;28;20032;-68
2023/07/21 02:43:30;;;;;;;6.65;2.70;;;17.50;65.00;;;16.46;77.84;95445.00;5013167;28;20092;-68
2023/07/21 02:45:56;;;;;;;5.93;2.97;;;17.50;64.70;;;16.45;76.91;95437.28;5015155;28;20108;-68
2023/07/21 02:48:22;;;;;;;5.00;2.72;;;17.40;65.10;;;16.44;77.38;95441.78;5031163;28;20029;-68
2023/07/21 02:50:49;;;;;;;3.90;2.67;;;17.40;65.30;;;16.44;77.09;95441.78;5014891;28;20033;-69
2023/07/21 02:53:19;;;;;;;7.00;3.08;;;17.50;65.20;;;16.43;78.08;95445.47;5008991;28;20033;-68
2023/07/21 02:55:45;;;;;;;7.63;2.87;;;17.50;65.40;;;16.41;77.88;95438.81;5030692;28;20581;-68
2023/07/21 02:58:12;;;;;;;5.25;2.70;;;17.40;65.70;;;16.41;77.74;95436.16;5031323;28;20055;-68
2023/07/21 03:00:39;;;;;;;8.20;2.97;;;17.40;65.30;;;16.39;77.78;95433.75;5047340;28;20029;-68
2023/07/21 03:03:05;;;;;;;3.70;2.55;;;17.40;65.30;;;16.37;77.56;95433.19;5031775;28;20107;-68
2023/07/21 03:05:31;;;;;;;6.72;2.88;;;17.40;65.40;;;16.36;78.18;95428.94;5030810;28;20476;-67
2023/07/21 03:07:57;;;;;;;4.65;2.63;;;17.40;65.30;;;16.34;77.38;95432.88;5004778;28;20534;-67
2023/07/21 03:10:23;;;;;;;7.18;3.00;;;17.40;65.20;;;16.34;77.55;95424.91;5022766;28;20069;-66
2023/07/21 03:12:49;;;;;;;11.55;3.25;;;17.30;65.30;;;16.33;77.97;95426.75;5030264;28;20055;-66
2023/07/21 03:15:15;;;;;;;8.00;3.08;;;17.30;65.30;;;16.30;77.76;95424.59;5031023;28;20133;-65
2023/07/21 03:17:41;;;;;;;10.48;2.92;;;17.30;65.60;;;16.30;78.97;95427.25;5046225;28;20076;-68
2023/07/21 03:20:15;;;;;;;6.25;3.17;;;17.30;66.10;;;16.28;79.03;95437.28;5030975;28;20040;-66
2023/07/21 03:22:44;;;;;;;5.85;3.20;;;17.30;66.60;;;16.26;80.94;95444.66;5031609;28;20079;-66
2023/07/21 03:25:11;;;;;;;14.25;3.03;;;17.30;67.50;;;16.24;81.52;95441.44;4998500;28;20769;-69
2023/07/21 03:27:40;;;;;;;6.97;3.08;;;17.20;68.50;;;16.22;82.32;95438.25;5027750;28;20819;-68
2023/07/21 03:30:07;;;;;;;3.80;2.58;;;17.20;69.00;;;16.22;82.82;95440.88;5025241;28;21651;-67
2023/07/21 03:32:33;;;;;;;10.68;2.92;;;17.20;69.00;;;16.19;83.84;95444.84;4996550;28;20530;-68
2023/07/21 03:34:58;;;;;;;7.93;2.90;;;17.20;69.40;;;16.19;84.31;95450.13;5013801;28;20033;-68
2023/07/21 03:37:27;;;;;;;8.15;3.28;;;17.20;69.60;;;16.19;84.93;95449.34;5028584;28;20065;-68
2023/07/21 03:39:53;;;;;;;7.93;2.80;;;17.20;69.60;;;16.17;85.36;95446.13;5045251;28;20640;-68
2023/07/21 03:42:19;;;;;;;5.88;3.25;;;17.20;69.60;;;16.17;85.28;95443.47;5047052;28;20041;-68
2023/07/21 03:44:48;;;;;;;5.30;2.83;;;17.30;69.60;;;16.16;86.41;95439.19;5047158;28;20037;-68
2023/07/21 03:47:19;;;;;;;6.25;3.10;;;17.20;69.80;;;16.15;86.26;95442.91;5029975;28;20045;-68
2023/07/21 03:49:45;;;;;;;13.30;3.47;;;17.20;69.90;;;16.15;86.22;95442.91;5000955;28;20553;-68
2023/07/21 03:52:11;;;;;;;7.03;3.42;;;17.20;69.90;;;16.16;86.75;95447.97;5030880;28;20029;-68
2023/07/21 03:54:37;;;;;;;7.20;3.13;;;17.10;70.00;;;16.18;87.08;95447.72;5030048;28;20095;-68
2023/07/21 03:57:03;;;;;;;6.13;3.05;;;17.20;70.20;;;16.19;86.83;95446.69;5040373;28;20037;-68
2023/07/21 03:59:29;;;;;;;5.88;3.15;;;17.30;70.40;;;16.18;87.37;95439.75;5046695;28;20048;-68
2023/07/21 04:01:55;;;;;;;5.75;2.90;;;17.20;70.10;;;16.18;86.71;95431.81;5028364;28;20771;-68
2023/07/21 04:04:21;;;;;;;6.78;3.38;;;17.30;69.80;;;16.17;86.87;95431.00;5049165;28;20041;-68
2023/07/21 04:06:47;;;;;;;12.95;3.30;;;17.20;69.70;;;16.19;86.58;95436.88;5011858;28;20036;-68
2023/07/21 04:09:13;;;;;;;6.70;3.10;;;17.30;69.50;;;16.22;86.78;95438.25;5013836;28;20055;-68
2023/07/21 04:11:42;;;;;;;5.40;2.75;;;17.40;69.50;;;16.24;86.77;95425.53;4996832;28;20220;-68
2023/07/21 04:14:08;;;;;;;8.52;3.50;;;17.40;69.30;;;16.21;86.89;95418.06;5027207;28;20029;-68
2023/07/21 04:16:36;;;;;;;5.18;3.80;;;17.30;69.30;;;16.17;86.48;95420.38;5044655;28;20593;-68
2023/07/21 04:19:02;;;;;;;7.05;3.38;;;17.30;69.30;;;16.16;86.66;95415.31;5013904;28;20503;-68
2023/07/21 04:21:28;;;;;;;8.02;4.10;;;17.30;69.10;;;16.16;86.77;95415.31;5046009;28;20103;-67
2023/07/21 04:23:54;;;;;;;14.88;3.58;;;17.30;68.70;;;16.18;85.74;95413.22;5012487;28;20029;-68
2023/07/21 04:26:19;;;;;;;5.30;3.10;;;17.30;68.20;;;16.20;85.38;95417.25;5046181;28;20591;-68
2023/07/21 04:28:45;;;;;;;10.52;3.45;;;17.40;68.10;;;16.23;85.03;95415.97;5046024;28;20048;-68
2023/07/21 04:31:11;;;;;;;9.02;2.70;;;17.40;68.20;;;16.26;84.42;95423.44;5037176;28;20037;-68
2023/07/21 04:33:37;;;;;;;6.00;2.78;;;17.50;67.80;;;16.30;85.26;95419.28;5029698;28;20040;-68
2023/07/21 04:36:04;;;;;;;6.35;3.00;;;17.50;67.80;;;16.32;84.37;95430.47;5013814;28;20025;-66
2023/07/21 04:38:30;;;;;;;8.13;3.42;;;17.50;67.70;;;16.37;84.31;95432.38;5026662;28;20029;-65
2023/07/21 04:40:56;;;;;;;5.32;2.88;;;17.60;67.60;;;16.40;83.22;95440.66;5004827;28;20025;-66
2023/07/21 04:43:21;;;;;;;5.45;3.10;;;17.60;66.50;;;16.42;82.48;95445.72;5027835;28;20040;-67
2023/07/21 04:45:47;;;;;;;5.22;3.30;;;17.60;66.60;;;16.43;82.91;95445.47;5028849;28;20032;-66
2023/07/21 04:48:13;;;;;;;11.10;2.92;;;17.60;66.10;;;16.47;81.87;95443.94;5028837;28;20504;-65
2023/07/21 04:50:42;;;;;;;4.63;2.72;;;17.70;65.60;;;16.51;80.75;95447.72;5012961;28;20039;-68
2023/07/21 04:53:09;;;;;;;8.63;3.30;;;17.70;65.70;;;16.54;81.17;95441.97;5046287;28;20036;-67
2023/07/21 04:55:35;;;;;;;5.28;2.97;;;17.70;65.70;;;16.60;81.13;95442.84;5022285;28;20577;-77
2023/07/21 04:58:01;;;;;;;5.18;2.35;;;17.80;65.10;;;16.62;80.02;95442.59;5043191;28;20124;-68
2023/07/21 05:00:27;;;;;;;4.13;2.40;;;17.80;64.70;;;16.65;79.49;95436.78;5023558;28;20029;-66
2023/07/21 05:02:53;;;;;;;4.20;2.50;;;17.90;63.70;;;16.70;78.25;95439.53;5043131;28;20037;-67
2023/07/21 05:05:19;;;;;;;6.30;3.15;;;17.90;63.60;;;16.72;78.46;95437.44;5025809;28;20029;-70
2023/07/21 05:07:45;;;;;;;5.22;2.83;;;18.00;64.00;;;16.75;78.24;95442.31;5029178;28;20428;-69
2023/07/21 05:10:10;;;;;;;5.03;2.88;;;18.00;63.80;;;16.77;78.25;95437.56;5009719;28;20725;-71
2023/07/21 05:12:36;;;;;;;6.72;2.88;;;18.00;63.70;;;16.80;78.60;95434.41;5040615;28;20727;-70
2023/07/21 05:15:02;;;;;;;4.45;2.83;;;18.10;63.30;;;16.83;78.05;95442.69;5033630;28;20055;-68
2023/07/21 05:17:28;;;;;;;8.23;3.20;;;18.10;63.10;;;16.88;76.79;95431.31;5046938;28;20033;-67
2023/07/21 05:19:54;;;;;;;7.22;2.97;;;18.20;62.20;;;16.95;76.87;95431.13;5045568;28;20064;-68
2023/07/21 05:22:19;;;;;;;4.68;2.75;;;18.20;62.30;;;16.97;76.75;95424.53;5054660;28;20044;-70
2023/07/21 05:24:45;;;;;;;8.30;3.03;;;18.20;62.90;;;17.02;77.20;95427.28;5014079;28;20112;-70
2023/07/21 05:27:11;;;;;;;3.67;2.50;;;18.30;63.10;;;17.06;77.43;95428.38;5017384;28;20118;-70
2023/07/21 05:29:37;;;;;;;8.45;2.65;;;18.50;63.30;;;17.12;77.69;95426.59;5036278;28;20065;-69
2023/07/21 05:32:03;;;;;;;5.65;2.90;;;18.40;63.30;;;17.16;77.48;95427.69;5034874;28;20031;-69
2023/07/21 05:34:32;;;;;;;5.43;2.28;;;18.60;63.30;;;17.22;77.58;95420.63;5048597;28;20021;-69
2023/07/21 05:36:58;;;;;;;6.70;2.83;;;18.60;62.50;;;17.28;76.77;95419.63;5016602;28;20040;-71
2023/07/21 05:39:27;;;;;;;9.32;2.75;;;18.70;62.20;;;17.34;77.43;95418.63;5030674;28;20159;-72
2023/07/21 05:41:58;;;;;;;5.65;2.97;;;18.80;62.50;;;17.44;77.82;95413.44;5032247;28;20111;-69
2023/07/21 05:44:24;;;;;;;14.82;3.30;;;18.90;62.40;;;17.50;76.96;95425.75;5030363;28;20085;-69
2023/07/21 05:46:49;;;;;;;4.75;3.10;;;19.00;62.40;;;17.57;77.69;95423.69;5016236;28;20459;-71
2023/07/21 05:49:16;;;;;;;7.90;3.67;;;19.10;62.00;;;17.68;76.41;95429.97;5005124;28;20120;-67
2023/07/21 05:51:43;;;;;;;5.97;3.40;;;19.30;61.50;;;17.79;76.65;95430.88;5012496;28;20041;-68
2023/07/21 05:54:08;;;;;;;5.82;2.70;;;19.30;62.00;;;17.85;76.64;95437.84;5047323;28;20291;-71
2023/07/21 05:56:34;;;;;;;4.30;3.03;;;19.40;62.00;;;17.91;76.27;95435.00;5016825;28;20034;-69
2023/07/21 05:59:00;;;;;;;4.82;2.75;;;19.40;61.20;;;17.98;76.77;95430.28;5047837;28;20040;-65
2023/07/21 06:01:27;;;;;;;7.63;3.17;;;19.50;60.80;;;18.05;74.09;95419.41;5017518;28;20044;-70
2023/07/21 06:03:53;;;;;;;6.03;3.25;;;19.60;59.00;;;18.11;73.52;95415.75;5030404;28;20283;-73
2023/07/21 06:06:18;;;;;;;9.00;3.55;;;19.70;58.90;;;18.21;74.01;95404.38;5050883;28;20048;-70
2023/07/21 06:08:44;;;;;;;8.82;3.38;;;19.90;58.10;;;18.29;72.97;95388.75;5032115;28;20128;-74
2023/07/21 06:11:10;;;;;;;9.73;3.35;;;20.10;57.30;;;18.43;73.27;95383.81;5043863;28;20115;-71
2023/07/21 06:13:36;;;;;;;8.93;3.78;;;20.30;57.30;;;18.61;72.14;95375.41;5045334;28;20126;-73
2023/07/21 06:16:01;;;;;;;9.77;3.70;;;20.60;56.60;;;18.83;72.21;95372.63;5048735;28;20488;-71
2023/07/21 06:18:27;;;;;;;17.35;4.22;;;20.90;56.80;;;19.03;72.97;95361.28;5034430;28;20061;-72
2023/07/21 06:20:53;;;;;;;12.55;4.13;;;21.10;56.30;;;19.22;71.40;95364.28;5047469;28;20033;-70
2023/07/21 06:23:20;;;;;;;7.50;3.60;;;21.30;55.80;;;19.43;72.25;95365.94;5035759;28;20480;-70
2023/07/21 06:25:45;;;;;;;7.45;3.60;;;21.60;55.60;;;19.64;70.98;95363.38;5045140;28;20139;-75
2023/07/21 06:28:12;;;;;;;8.98;3.58;;;21.80;55.50;;;19.81;71.38;95361.28;5016862;28;20052;-74
2023/07/21 06:30:38;;;;;;;13.30;3.50;;;22.00;55.10;;;19.95;70.16;95361.56;5014123;28;20381;-74
2023/07/21 06:33:07;;;;;;;8.18;3.58;;;22.00;54.60;;;20.08;69.71;95372.50;5036099;28;20066;-72
2023/07/21 06:35:34;;;;;;;6.18;3.10;;;22.10;54.50;;;20.17;69.58;95376.25;5014275;28;20040;-69
2023/07/21 06:38:00;;;;;;;5.95;3.03;;;22.10;54.20;;;20.26;68.93;95373.06;5031399;28;20099;-71
2023/07/21 06:40:26;;;;;;;7.85;3.40;;;22.20;54.00;;;20.31;68.24;95375.72;5030515;28;20041;-70
2023/07/21 06:42:52;;;;;;;6.22;3.22;;;22.30;53.40;;;20.41;67.90;95376.56;5043485;28;20163;-71
2023/07/21 06:45:18;;;;;;;8.07;3.25;;;22.60;53.20;;;20.60;67.84;95374.13;5046897;28;20493;-73
2023/07/21 06:47:43;;;;;;;8.73;3.55;;;22.90;52.60;;;20.80;67.37;95363.38;5051291;28;20098;-76
2023/07/21 06:50:09;;;;;;;9.30;3.42;;;23.30;52.20;;;21.01;68.22;95363.34;5014547;28;20059;-77
2023/07/21 06:52:37;;;;;;;7.55;3.10;;;23.60;52.40;;;21.20;67.87;95353.66;5035212;28;20034;-74
2023/07/21 06:55:04;;;;;;;13.02;3.55;;;23.60;51.70;;;21.32;66.94;95346.16;5017923;28;20029;-75
2023/07/21 06:57:29;;;;;;;9.65;3.42;;;23.50;51.60;;;21.36;65.88;95352.53;5008151;28;20650;-73
2023/07/21 06:59:55;;;;;;;4.03;2.75;;;23.40;51.70;;;21.44;65.35;95355.72;5048010;28;20092;-74
2023/07/21 07:02:21;;;;;;;9.93;3.50;;;23.70;51.70;;;21.57;65.97;95355.13;5049645;28;20070;-73
2023/07/21 07:04:51;;;;;;;7.00;2.78;;;24.10;51.40;;;21.71;65.36;95356.88;5015027;28;20191;-73
2023/07/21 07:07:19;;;;;;;7.53;3.15;;;24.40;50.50;;;21.90;65.82;95354.38;5038085;28;20684;-74
2023/07/21 07:09:46;;;;;;;8.60;3.78;;;24.70;49.70;;;22.01;64.37;95355.09;5012009;28;20060;-70
2023/07/21 07:12:11;;;;;;;7.18;3.40;;;24.80;48.80;;;22.22;64.69;95353.09;5030726;28;20088;-70
2023/07/21 07:14:37;;;;;;;6.63;3.38;;;25.20;48.70;;;22.45;64.00;95365.78;5050229;28;20128;-70
2023/07/21 07:17:03;;;;;;;7.88;3.20;;;25.60;47.70;;;22.67;63.53;95364.50;5047987;28;20058;-69
2023/07/21 07:19:29;;;;;;;6.88;3.50;;;25.60;47.10;;;22.84;62.92;95356.84;5053508;28;20059;-69
2023/07/21 07:21:54;;;;;;;9.98;3.63;;;25.70;47.50;;;23.07;62.38;95361.41;5049985;28;20040;-68
2023/07/21 07:24:20;;;;;;;7.15;3.75;;;26.10;47.10;;;23.31;61.84;95363.28;5055150;28;20093;-69
2023/07/21 07:26:47;;;;;;;5.82;3.00;;;26.40;46.30;;;23.59;61.49;95359.75;5040246;28;20079;-69
2023/07/21 07:29:15;;;;;;;9.93;3.22;;;26.80;45.70;;;23.78;60.63;95360.56;5040311;28;20124;-68
2023/07/21 07:31:41;;;;;;;6.82;3.42;;;26.70;45.40;;;23.95;59.36;95354.66;5040465;28;20702;-65
2023/07/21 07:34:07;;;;;;;10.75;3.90;;;26.60;45.30;;;24.11;58.08;95358.72;5004779;28;20036;-68
2023/07/21 07:36:33;;;;;;;12.27;3.50;;;26.50;45.10;;;24.13;57.53;95350.38;5030128;28;20044;-67
2023/07/21 07:38:58;;;;;;;5.45;2.80;;;26.20;46.00;;;24.10;58.25;95356.31;5051747;28;20136;-67
2023/07/21 07:41:24;;;;;;;7.15;3.33;;;26.10;46.40;;;24.03;57.49;95350.53;5045518;28;20095;-67
2023/07/21 07:43:50;;;;;;;9.45;3.20;;;25.80;46.40;;;23.96;56.97;95350.09;5054221;28;20044;-67
2023/07/21 07:46:17;;;;;;;10.50;3.83;;;25.70;46.80;;;23.83;56.83;95352.44;5033173;28;20037;-66
2023/07/21 07:48:45;;;;;;;7.47;3.38;;;25.40;47.30;;;23.72;57.03;95355.53;5051034;28;20040;-70
2023/07/21 07:51:10;;;;;;;8.25;3.65;;;25.30;47.60;;;23.61;57.31;95359.47;5036134;28;20039;-70
2023/07/21 07:53:36;;;;;;;8.93;3.70;;;25.10;48.10;;;23.55;57.59;95358.69;5053470;28;20072;-65
2023/07/21 07:56:03;;;;;;;7.03;3.28;;;25.10;48.40;;;23.48;58.62;95368.97;5045169;28;20052;-67
2023/07/21 07:58:29;;;;;;;6.97;3.03;;;25.10;49.00;;;23.46;58.94;95368.47;5033754;28;20037;-67
2023/07/21 08:00:58;;;;;;;10.75;3.65;;;25.10;49.30;;;23.46;58.65;95366.59;5041066;28;20308;-67
2023/07/21 08:03:24;;;;;;;8.93;3.22;;;25.20;49.30;;;23.44;58.99;95368.75;5021240;28;20451;-67
2023/07/21 08:05:50;;;;;;;7.15;3.20;;;25.30;48.80;;;23.46;58.93;95368.47;5034544;28;20107;-67
2023/07/21 08:08:18;;;;;;;7.53;3.28;;;25.30;48.70;;;23.51;58.58;95371.88;5048739;28;20077;-68
2023/07/21 08:10:44;;;;;;;7.97;3.20;;;25.30;48.80;;;23.49;58.88;95367.88;4994299;28;20118;-67
2023/07/21 08:13:10;;;;;;;6.00;2.95;;;25.20;48.90;;;23.51;59.27;95365.72;5025742;28;20037;-69
2023/07/21 08:15:38;;;;;;;5.57;3.05;;;25.30;49.40;;;23.52;58.91;95370.78;5016953;28;20078;-69
2023/07/21 08:18:04;;;;;;;7.25;3.17;;;25.30;49.30;;;23.55;58.99;95380.19;5046114;28;20092;-67
2023/07/21 08:20:29;;;;;;;7.50;3.58;;;25.30;49.10;;;23.52;59.02;95384.22;5051517;28;20075;-68
2023/07/21 08:22:55;;;;;;;5.68;3.33;;;25.10;48.60;;;23.57;58.13;95374.56;5031246;28;20130;-69
2023/07/21 08:25:21;;;;;;;5.07;3.10;;;25.30;48.50;;;23.55;58.59;95374.81;5032048;28;20083;-68
2023/07/21 08:27:46;;;;;;;5.80;3.40;;;25.30;48.50;;;23.46;58.17;95369.25;5049210;28;20071;-67
2023/07/21 08:30:12;;;;;;;11.40;3.53;;;25.10;48.80;;;23.46;58.29;95379.22;5035314;28;20072;-67
2023/07/21 08:32:40;;;;;;;6.57;3.00;;;25.10;48.90;;;23.46;58.48;95387.25;5048341;28;20041;-64
2023/07/21 08:35:09;;;;;;;8.50;3.53;;;25.10;49.40;;;23.47;59.02;95386.16;5037570;28;20114;-64
2023/07/21 08:37:36;;;;;;;10.32;3.35;;;25.10;49.30;;;23.47;58.30;95391.53;5032124;28;20033;-69
2023/07/21 08:40:03;;;;;;;6.35;3.55;;;25.10;48.90;;;23.46;57.95;95398.00;5037391;28;20033;-70
2023/07/21 08:42:29;;;;;;;10.23;3.33;;;25.00;48.60;;;23.44;58.02;95402.84;5027997;28;20449;-69
2023/07/21 08:44:55;;;;;;;7.65;3.20;;;25.10;49.50;;;23.42;57.63;95407.72;5036695;28;20128;-70
2023/07/21 08:47:22;;;;;;;7.45;3.03;;;25.00;48.80;;;23.40;58.24;95407.19;5048381;28;20040;-70
2023/07/21 08:49:48;;;;;;;4.80;3.13;;;24.90;49.00;;;23.38;58.45;95412.06;5035328;28;20025;-70
2023/07/21 08:52:14;;;;;;;10.38;3.08;;;25.00;49.50;;;23.39;58.35;95413.66;5031543;28;20105;-74
2023/07/21 08:54:40;;;;;;;7.55;3.15;;;25.10;49.10;;;23.41;58.12;95417.66;5016594;28;20052;-66
2023/07/21 08:57:05;;;;;;;5.95;3.03;;;25.10;48.80;;;23.46;58.58;95416.78;5043195;28;20069;-65
2023/07/21 08:59:31;;;;;;;5.88;3.17;;;25.30;48.40;;;23.49;57.27;95413.53;5014682;28;20038;-67
2023/07/21 09:01:58;;;;;;;5.25;3.03;;;25.40;48.00;;;23.55;58.01;95404.34;5044543;28;20069;-71
2023/07/21 09:04:24;;;;;;;5.20;2.60;;;25.40;48.10;;;23.59;57.38;95405.38;5033701;28;20121;-67
2023/07/21 09:06:58;;;;;;;7.25;2.90;;;25.30;47.50;;;23.59;56.75;95404.59;5014158;28;20112;-72
2023/07/21 09:09:27;;;;;;;6.28;2.97;;;25.20;47.90;;;23.62;57.50;95412.88;5036080;28;20055;-71
2023/07/21 09:12:03;;;;;;;6.25;3.05;;;25.40;48.80;;;23.66;56.36;95411.19;5011586;28;20032;-70
2023/07/21 09:14:43;;;;;;;8.85;2.90;;;25.30;47.80;;;23.70;56.04;95419.47;5034685;28;20471;-70
2023/07/21 09:17:12;;;;;;;5.70;2.77;;;25.20;47.90;;;23.60;56.82;95428.47;5013871;28;20601;-70
2023/07/21 09:19:48;;;;;;;7.57;3.10;;;24.80;48.70;;;23.56;56.45;95430.13;5013736;28;20044;-71
2023/07/21 09:22:14;;;;;;;9.10;3.58;;;24.90;48.30;;;23.52;56.54;95427.16;5058833;28;20119;-72
2023/07/21 09:24:50;;;;;;;7.88;3.00;;;25.10;48.10;;;23.58;55.93;95419.09;5027158;28;20781;-69
2023/07/21 09:27:19;;;;;;;6.03;2.72;;;25.30;47.70;;;23.68;55.20;95406.34;5046024;28;20048;-66
2023/07/21 09:29:46;;;;;;;8.65;3.00;;;25.70;46.50;;;23.82;55.67;95409.13;5041989;28;21377;-66
2023/07/21 09:32:13;;;;;;;7.68;2.58;;;25.80;46.20;;;24.01;55.92;95406.44;5027466;28;20037;-66
2023/07/21 09:35:02;;;;;;;6.18;2.53;;;26.20;46.30;;;24.24;54.12;95385.94;5053219;28;20037;-65
2023/07/21 09:37:32;;;;;;;4.30;2.50;;;26.30;45.00;;;24.37;53.87;95377.97;5031373;28;20033;-65
2023/07/21 09:40:09;;;;;;;10.82;3.53;;;26.40;45.00;;;24.45;53.00;95367.66;5019739;28;20033;-66
2023/07/21 09:42:35;;;;;;;5.18;2.70;;;26.50;44.70;;;24.48;53.31;95372.44;5039632;28;20473;-66
2023/07/21 09:45:01;;;;;;;4.35;2.80;;;26.40;43.90;;;24.61;52.57;95366.28;5021783;28;20242;-70
2023/07/21 09:47:27;;;;;;;5.78;2.75;;;26.90;43.10;;;24.90;52.02;95366.84;5047744;28;20452;-69
2023/07/21 09:49:54;;;;;;;7.65;2.70;;;27.50;41.90;;;25.07;51.35;95357.41;5032399;28;20033;-69
2023/07/21 09:52:22;;;;;;;4.75;2.30;;;27.20;41.90;;;25.16;50.63;95342.97;5017012;28;20066;-69
2023/07/21 09:54:52;;;;;;;12.40;3.25;;;27.40;41.50;;;25.44;50.04;95345.63;5011310;28;20040;-70
2023/07/21 09:57:24;;;;;;;5.97;2.28;;;28.10;40.40;;;25.65;48.60;95334.13;5000626;28;20044;-70
2023/07/21 09:59:50;;;;;;;6.18;2.35;;;28.10;40.60;;;25.79;49.36;95352.97;4999695;28;20047;-70
2023/07/21 10:02:17;;;;;;;5.88;2.65;;;28.10;40.80;;;25.87;48.80;95354.94;5033123;28;20106;-69
2023/07/21 10:04:43;;;;;;;7.88;2.80;;;28.00;40.40;;;25.85;48.37;95357.16;5014985;28;20171;-68
2023/07/21 10:07:09;;;;;;;8.50;2.67;;;27.70;40.90;;;25.72;48.27;95349.88;5029341;28;20041;-70
2023/07/21 10:09:35;;;;;;;6.13;2.58;;;27.30;41.10;;;25.70;47.89;95359.38;5032443;28;20071;-70
2023/07/21 10:12:15;;;;;;;5.85;2.80;;;27.40;41.10;;;25.54;47.26;95340.03;5026263;28;20037;-70
2023/07/21 10:14:41;;;;;;;4.25;2.60;;;27.00;41.70;;;25.46;47.99;95349.63;5034458;28;20444;-70
2023/07/21 10:17:07;;;;;;;10.30;3.42;;;26.90;42.20;;;25.48;48.06;95352.78;5013660;28;20080;-70
2023/07/21 10:19:44;;;;;;;4.72;2.67;;;27.30;41.80;;;25.59;47.64;95354.19;5031546;28;20080;-70